Time;durP1;ratioP1;P1;durP2;ratioP2;P2;SDS_P1;SDS_P2;PMS_P1;PMS_P2;Temp;Humidity;BMP_temperature;BMP_pressure;BME280_temperature;BME280_humidity;BME280_pressure;Samples;Min_cycle;Max_cycle;Signal;HPM_P1;HPM_P2
2022/11/15 00:00:44;;;;;;;134.47;49.37;;;7.80;99.90;;;;;;5080996;28;36838;-78
2022/11/15 00:03:14;;;;;;;122.93;47.90;;;7.80;99.90;;;;;;5102181;27;36621;-78
2022/11/15 00:05:41;;;;;;;146.03;49.60;;;7.80;99.90;;;;;;5084562;28;37544;-76
2022/11/15 00:08:07;;;;;;;138.73;49.13;;;7.80;99.90;;;;;;5104819;27;36961;-77
2022/11/15 00:10:33;;;;;;;131.63;49.40;;;7.80;99.90;;;;;;5083835;28;37086;-77
2022/11/15 00:12:59;;;;;;;108.13;44.13;;;7.90;99.90;;;;;;5088256;28;37021;-77
2022/11/15 00:15:26;;;;;;;145.87;48.80;;;7.90;99.90;;;;;;5103603;27;39061;-77
2022/11/15 00:17:52;;;;;;;115.90;46.63;;;7.90;99.90;;;;;;5088129;28;39342;-78
2022/11/15 00:20:18;;;;;;;144.50;48.93;;;7.90;99.90;;;;;;5086969;27;38633;-78
2022/11/15 00:22:44;;;;;;;151.57;52.57;;;7.90;99.90;;;;;;5094184;28;36649;-77
2022/11/15 00:25:10;;;;;;;143.80;50.77;;;7.90;99.90;;;;;;5082363;27;38566;-77
2022/11/15 00:27:36;;;;;;;155.03;52.50;;;7.90;99.90;;;;;;5087247;27;38638;-78
2022/11/15 00:30:03;;;;;;;139.07;52.70;;;7.90;99.90;;;;;;5086877;27;38095;-77
2022/11/15 00:32:32;;;;;;;132.27;52.80;;;7.90;99.90;;;;;;5097595;27;36617;-77
2022/11/15 00:34:58;;;;;;;178.53;57.73;;;7.90;99.90;;;;;;5097301;27;37692;-78
2022/11/15 00:37:27;;;;;;;164.70;56.17;;;7.90;99.90;;;;;;5084368;27;36878;-77
2022/11/15 00:39:53;;;;;;;151.90;55.70;;;8.00;99.90;;;;;;5085800;27;38674;-78
2022/11/15 00:42:20;;;;;;;173.47;60.30;;;7.90;99.90;;;;;;5100318;27;37798;-77
2022/11/15 00:44:46;;;;;;;187.73;59.43;;;8.00;99.90;;;;;;5098562;27;37732;-77
2022/11/15 00:47:12;;;;;;;150.00;57.77;;;8.00;99.90;;;;;;5087121;27;38800;-78
2022/11/15 00:49:38;;;;;;;144.23;55.17;;;8.00;99.90;;;;;;5081475;27;37686;-77
2022/11/15 00:52:04;;;;;;;172.27;59.00;;;8.00;99.90;;;;;;5080944;28;37795;-78
2022/11/15 00:54:31;;;;;;;157.67;58.30;;;8.00;99.90;;;;;;5076844;27;37374;-77
2022/11/15 00:56:57;;;;;;;171.40;61.43;;;8.10;99.90;;;;;;5089586;27;38232;-78
2022/11/15 00:59:23;;;;;;;175.77;61.10;;;8.10;99.90;;;;;;5080250;27;36713;-77
2022/11/15 01:01:49;;;;;;;177.43;60.90;;;8.10;99.90;;;;;;5084534;28;36098;-77
2022/11/15 01:04:15;;;;;;;170.07;61.03;;;8.20;99.90;;;;;;5084283;27;37287;-77
2022/11/15 01:06:41;;;;;;;170.57;62.23;;;8.20;99.90;;;;;;5099838;27;37700;-77
2022/11/15 01:09:07;;;;;;;156.07;58.90;;;8.20;99.90;;;;;;5087462;27;38014;-78
2022/11/15 01:11:33;;;;;;;157.90;58.73;;;8.20;99.90;;;;;;5086294;27;39948;-77
2022/11/15 01:13:59;;;;;;;168.17;62.60;;;8.30;99.90;;;;;;5084959;28;37513;-77
2022/11/15 01:16:26;;;;;;;208.03;67.80;;;8.20;99.90;;;;;;5086760;28;35755;-78
2022/11/15 01:18:52;;;;;;;170.90;62.90;;;8.30;99.90;;;;;;5098058;27;36533;-78
2022/11/15 01:21:19;;;;;;;142.67;57.10;;;8.30;99.90;;;;;;5102563;27;34533;-77
2022/11/15 01:23:45;;;;;;;163.67;61.33;;;8.30;99.90;;;;;;5091055;27;38677;-77
2022/11/15 01:26:14;;;;;;;149.73;57.77;;;8.40;99.90;;;;;;5089398;28;36040;-78
2022/11/15 01:28:41;;;;;;;143.30;57.40;;;8.40;99.90;;;;;;5063521;27;37038;-77
2022/11/15 01:31:14;;;;;;;143.57;58.27;;;8.40;99.90;;;;;;5071986;27;36405;-77
2022/11/15 01:33:41;;;;;;;138.50;58.73;;;8.50;99.90;;;;;;5081288;27;39837;-76
2022/11/15 01:36:16;;;;;;;134.53;52.87;;;8.50;99.90;;;;;;5079652;27;37662;-76
2022/11/15 01:38:42;;;;;;;121.43;54.57;;;8.50;99.90;;;;;;5098458;27;36875;-77
2022/11/15 01:41:17;;;;;;;147.30;57.83;;;8.50;99.90;;;;;;5098407;27;35984;-77
2022/11/15 01:43:43;;;;;;;123.90;52.90;;;8.60;99.90;;;;;;5087214;27;39115;-77
2022/11/15 01:46:44;;;;;;;116.30;51.33;;;8.60;99.90;;;;;;5088007;28;37647;-78
2022/11/15 01:49:16;;;;;;;130.03;53.57;;;8.60;99.90;;;;;;5080904;27;38627;-77
2022/11/15 01:51:42;;;;;;;119.23;52.63;;;8.70;99.90;;;;;;5083490;28;37400;-77
2022/11/15 01:54:14;;;;;;;111.83;53.00;;;8.70;99.90;;;;;;5082097;27;38928;-77
2022/11/15 01:56:51;;;;;;;110.65;50.50;;;8.80;99.90;;;;;;5096202;27;39256;-77
2022/11/15 01:59:18;;;;;;;120.37;52.60;;;8.80;99.90;;;;;;5084333;28;37008;-77
2022/11/15 02:04:25;;;;;;;138.50;57.23;;;8.90;99.90;;;;;;4997142;28;20046;-77
2022/11/15 02:06:51;;;;;;;109.27;52.40;;;9.00;99.90;;;;;;5007408;28;37058;-76
2022/11/15 02:09:17;;;;;;;128.17;54.33;;;9.10;99.90;;;;;;5013511;28;37066;-76
2022/11/15 02:11:45;;;;;;;130.63;54.20;;;9.20;99.90;;;;;;5012387;28;38172;-78
2022/11/15 02:14:14;;;;;;;108.33;50.60;;;9.20;99.90;;;;;;5021032;28;36634;-76
2022/11/15 02:16:43;;;;;;;116.57;52.40;;;9.30;99.90;;;;;;5007738;28;37171;-76
2022/11/15 02:19:30;;;;;;;105.73;50.73;;;9.30;99.90;;;;;;5025947;28;37872;-76
2022/11/15 02:22:02;;;;;;;101.37;50.43;;;9.40;99.90;;;;;;5027289;28;36271;-76
2022/11/15 02:25:02;;;;;;;112.18;51.40;;;9.50;99.90;;;;;;5004945;28;48547;-75
2022/11/15 02:27:34;;;;;;;103.10;50.93;;;9.60;99.90;;;;;;5002713;28;39300;-76
2022/11/15 02:30:23;;;;;;;87.53;46.30;;;9.70;99.90;;;;;;5007904;28;36490;-76
2022/11/15 02:32:58;;;;;;;90.40;46.40;;;9.80;99.90;;;;;;5025735;28;36123;-76
2022/11/15 02:35:36;;;;;;;92.00;49.37;;;9.90;99.90;;;;;;5009562;28;38496;-75
2022/11/15 02:38:27;;;;;;;95.03;47.33;;;10.00;99.90;;;;;;5010240;28;37994;-76
2022/11/15 02:41:14;;;;;;;82.73;45.57;;;10.10;99.90;;;;;;5004912;28;50184;-76
2022/11/15 02:44:04;;;;;;;73.53;43.07;;;10.20;99.90;;;;;;5020309;28;47349;-76
2022/11/15 02:49:37;;;;;;;69.60;43.47;;;10.30;99.90;;;;;;5008512;28;49782;-76
2022/11/15 02:52:03;;;;;;;71.97;42.13;;;10.40;99.90;;;;;;5004842;28;37812;-75
2022/11/15 02:54:31;;;;;;;70.60;40.97;;;10.40;99.90;;;;;;5010191;28;37858;-76
2022/11/15 02:57:03;;;;;;;65.65;40.42;;;10.50;99.90;;;;;;5026327;28;37516;-76
2022/11/15 02:59:32;;;;;;;60.95;38.28;;;10.50;99.90;;;;;;5007626;28;46960;-76
2022/11/15 03:02:16;;;;;;;65.07;37.63;;;10.50;99.90;;;;;;5002863;28;37873;-76
2022/11/15 03:04:57;;;;;;;58.60;37.20;;;10.50;99.90;;;;;;5008164;28;48337;-76
2022/11/15 03:07:47;;;;;;;56.90;33.63;;;10.50;99.90;;;;;;5019027;28;38494;-76
2022/11/15 03:10:40;;;;;;;55.43;33.97;;;10.50;99.90;;;;;;5022482;28;41163;-76
2022/11/15 03:13:21;;;;;;;55.03;35.20;;;10.60;99.90;;;;;;5008047;28;38233;-76
2022/11/15 03:16:03;;;;;;;49.20;32.55;;;10.60;99.90;;;;;;5012190;28;37144;-77
2022/11/15 03:18:37;;;;;;;48.23;31.07;;;10.70;99.90;;;;;;5027724;28;41245;-77
2022/11/15 03:21:07;;;;;;;50.42;30.73;;;10.70;99.90;;;;;;5004421;28;38693;-77
2022/11/15 03:23:34;;;;;;;46.63;29.67;;;10.70;99.90;;;;;;5003763;28;46976;-76
2022/11/15 03:26:04;;;;;;;40.20;26.90;;;10.70;99.90;;;;;;5018910;28;35780;-76
2022/11/15 03:28:38;;;;;;;43.75;27.52;;;10.70;99.90;;;;;;5005813;28;47508;-76
2022/11/15 03:31:46;;;;;;;40.47;26.40;;;10.60;99.90;;;;;;4998876;28;37478;-76
2022/11/15 03:33:57;;;;;;;41.67;25.48;;;10.70;99.90;;;;;;5016295;28;47982;-76
2022/11/15 03:36:24;;;;;;;35.35;22.58;;;10.70;99.90;;;;;;5025608;28;36246;-77
2022/11/15 03:38:56;;;;;;;37.90;23.55;;;10.80;99.90;;;;;;5003702;28;37590;-75
2022/11/15 03:41:48;;;;;;;35.40;21.20;;;10.80;99.90;;;;;;5001355;28;39014;-76
2022/11/15 03:44:41;;;;;;;34.75;21.75;;;10.80;99.90;;;;;;4998981;28;36589;-76
2022/11/15 03:47:12;;;;;;;;;;;10.80;99.90;;;;;;5007473;28;36452;-76
2022/11/15 03:49:44;;;;;;;32.53;18.50;;;10.90;99.90;;;;;;5008787;28;38777;-76
2022/11/15 03:52:17;;;;;;;38.65;21.98;;;10.80;99.90;;;;;;5011985;28;38070;-77
2022/11/15 03:54:50;;;;;;;;;;;10.80;99.90;;;;;;5012346;28;37613;-75
2022/11/15 03:57:16;;;;;;;29.52;19.50;;;10.90;99.90;;;;;;5012892;28;38563;-77
2022/11/15 03:59:42;;;;;;;34.85;22.02;;;10.90;99.90;;;;;;5010830;28;39016;-76
2022/11/15 04:02:11;;;;;;;35.30;22.13;;;10.90;99.90;;;;;;5009638;28;38383;-77
2022/11/15 04:04:37;;;;;;;37.22;22.33;;;10.90;99.90;;;;;;5027856;28;35451;-76
2022/11/15 04:07:03;;;;;;;39.20;23.73;;;10.90;99.90;;;;;;5012575;28;38371;-77
2022/11/15 04:09:29;;;;;;;41.90;25.33;;;10.90;99.90;;;;;;5013770;28;38065;-76
2022/11/15 04:11:56;;;;;;;36.85;24.63;;;10.90;99.90;;;;;;5010982;28;38683;-77
2022/11/15 04:14:22;;;;;;;38.27;23.37;;;10.90;99.90;;;;;;5004681;28;36852;-75
2022/11/15 04:16:48;;;;;;;38.57;23.30;;;10.90;99.90;;;;;;5011564;28;39445;-75
2022/11/15 04:24:43;;;;;;;37.00;23.08;;;10.90;99.90;;;;;;5003012;28;49322;-77
2022/11/15 04:27:12;;;;;;;44.13;23.58;;;10.80;99.90;;;;;;5011479;28;37007;-77
2022/11/15 04:29:38;;;;;;;36.17;21.15;;;10.80;99.90;;;;;;5027921;28;38011;-76
2022/11/15 04:32:06;;;;;;;36.35;22.30;;;10.90;99.90;;;;;;5023949;28;39188;-77
2022/11/15 04:34:33;;;;;;;35.22;22.27;;;10.90;99.90;;;;;;5008826;28;37088;-76
2022/11/15 04:40:00;;;;;;;31.98;22.30;;;10.80;99.90;;;;;;4975272;28;48822;-77
2022/11/15 04:42:26;;;;;;;31.27;20.80;;;10.80;99.90;;;;;;4997238;28;38096;-76
2022/11/15 04:44:52;;;;;;;34.70;21.40;;;10.80;99.90;;;;;;5028849;28;37050;-76
2022/11/15 04:47:18;;;;;;;35.63;20.60;;;10.80;99.90;;;;;;5011627;28;37850;-76
2022/11/15 04:49:44;;;;;;;32.75;20.23;;;10.70;99.90;;;;;;5007289;28;38206;-76
2022/11/15 04:52:11;;;;;;;35.42;19.70;;;10.70;99.90;;;;;;5007338;28;37377;-77
2022/11/15 04:54:37;;;;;;;31.40;20.50;;;10.80;99.90;;;;;;5009935;28;38054;-75
2022/11/15 04:57:03;;;;;;;33.53;19.85;;;10.80;99.90;;;;;;5012898;28;39827;-77
2022/11/15 04:59:29;;;;;;;30.70;17.57;;;10.80;99.90;;;;;;5010486;28;36254;-76
2022/11/15 05:01:55;;;;;;;31.02;17.83;;;10.80;99.90;;;;;;5009859;28;38590;-77
2022/11/15 05:04:21;;;;;;;32.25;18.40;;;10.90;99.90;;;;;;5010178;28;37674;-77
2022/11/15 05:06:50;;;;;;;29.33;18.15;;;10.90;99.90;;;;;;5028101;28;36824;-76
2022/11/15 05:09:17;;;;;;;28.70;17.67;;;10.90;99.90;;;;;;5012982;28;38643;-76
2022/11/15 05:11:47;;;;;;;32.35;16.27;;;10.90;99.90;;;;;;5012061;28;37807;-76
2022/11/15 05:14:13;;;;;;;28.90;16.20;;;10.90;99.90;;;;;;5013487;28;37967;-76
2022/11/15 05:16:42;;;;;;;25.08;15.35;;;10.90;99.90;;;;;;5009535;28;37162;-75
2022/11/15 05:19:08;;;;;;;26.88;16.17;;;10.90;99.90;;;;;;5012219;28;38923;-77
2022/11/15 05:21:38;;;;;;;32.90;16.67;;;10.90;99.90;;;;;;5011037;28;37000;-76
2022/11/15 05:24:04;;;;;;;23.70;15.30;;;10.90;99.90;;;;;;5012190;28;38263;-76
2022/11/15 05:26:31;;;;;;;29.95;15.65;;;10.90;99.90;;;;;;5028072;28;36261;-75
2022/11/15 05:28:59;;;;;;;24.17;14.20;;;10.90;99.90;;;;;;5012429;28;37922;-76
2022/11/15 05:31:26;;;;;;;25.73;14.85;;;10.90;99.90;;;;;;5009148;28;38113;-77
2022/11/15 05:33:54;;;;;;;24.80;14.45;;;10.90;99.90;;;;;;5011245;28;37722;-77
2022/11/15 05:36:40;;;;;;;24.13;14.40;;;10.90;99.90;;;;;;5008868;28;36725;-76
2022/11/15 05:39:07;;;;;;;21.83;12.57;;;10.80;99.90;;;;;;5011263;28;37732;-77
2022/11/15 05:41:46;;;;;;;24.50;12.27;;;10.80;99.90;;;;;;5022053;28;36445;-77
2022/11/15 05:44:18;;;;;;;23.95;12.57;;;10.70;99.90;;;;;;5012090;28;38719;-77
2022/11/15 05:46:50;;;;;;;20.40;11.32;;;10.70;99.90;;;;;;5026127;28;36627;-76
2022/11/15 05:49:21;;;;;;;22.67;12.93;;;10.60;99.90;;;;;;5007886;28;38665;-77
2022/11/15 05:51:49;;;;;;;20.48;11.32;;;10.60;99.90;;;;;;5001275;28;38816;-78
2022/11/15 05:54:20;;;;;;;24.63;12.77;;;10.50;99.90;;;;;;5008075;28;37983;-77
2022/11/15 05:56:46;;;;;;;17.43;11.00;;;10.50;99.90;;;;;;5008994;28;37317;-77
2022/11/15 05:59:13;;;;;;;18.17;10.80;;;10.40;99.90;;;;;;5009284;28;39009;-77
2022/11/15 06:01:40;;;;;;;23.03;11.13;;;10.40;99.90;;;;;;5008637;28;37290;-77
2022/11/15 06:04:06;;;;;;;20.90;10.13;;;10.30;99.90;;;;;;5007060;28;38223;-77
2022/11/15 06:06:42;;;;;;;21.03;9.43;;;10.30;99.90;;;;;;5003873;28;36459;-78
2022/11/15 06:09:09;;;;;;;22.70;11.50;;;10.20;99.90;;;;;;5017525;28;38307;-78
2022/11/15 06:11:35;;;;;;;25.53;11.20;;;10.20;99.90;;;;;;5005864;28;37812;-78
2022/11/15 06:14:01;;;;;;;34.83;13.10;;;10.10;99.90;;;;;;5023599;28;36589;-79
2022/11/15 06:16:27;;;;;;;20.20;10.70;;;10.10;99.90;;;;;;5009080;28;38191;-77
2022/11/15 06:18:53;;;;;;;19.40;10.93;;;10.10;99.90;;;;;;5004632;28;37609;-78
2022/11/15 06:21:20;;;;;;;22.50;11.50;;;10.10;99.90;;;;;;5030756;28;36932;-78
2022/11/15 06:23:46;;;;;;;21.57;11.97;;;10.10;99.90;;;;;;5004599;28;36506;-76
2022/11/15 06:26:12;;;;;;;23.37;12.10;;;10.10;99.90;;;;;;5004043;28;38136;-77
2022/11/15 06:28:38;;;;;;;29.67;12.47;;;10.10;99.90;;;;;;5004547;28;37509;-77
2022/11/15 06:31:08;;;;;;;20.33;11.50;;;10.10;99.90;;;;;;5007886;28;40496;-77
2022/11/15 06:33:38;;;;;;;21.70;10.93;;;10.10;99.90;;;;;;5012055;28;36494;-76
2022/11/15 06:36:07;;;;;;;23.00;11.33;;;10.00;99.90;;;;;;5025114;28;37587;-75
2022/11/15 06:38:33;;;;;;;25.60;11.13;;;10.00;99.90;;;;;;5023278;28;47294;-75
2022/11/15 06:43:36;;;;;;;29.37;10.90;;;10.00;99.90;;;;;;5549943;22;20048;-77
2022/11/15 06:46:04;;;;;;;26.03;10.50;;;10.00;99.90;;;;;;5056275;28;36348;-75
2022/11/15 06:48:32;;;;;;;26.73;10.63;;;10.00;99.90;;;;;;5040897;28;47183;-75
2022/11/15 06:51:03;;;;;;;24.93;10.50;;;10.00;99.90;;;;;;5039176;28;38635;-75
2022/11/15 06:53:30;;;;;;;24.57;10.67;;;10.00;99.90;;;;;;5046195;28;37014;-75
2022/11/15 06:56:05;;;;;;;20.37;9.60;;;10.10;99.90;;;;;;5065594;28;38302;-75
2022/11/15 06:58:31;;;;;;;17.10;8.47;;;10.00;99.90;;;;;;5048472;28;48523;-75
2022/11/15 07:01:05;;;;;;;22.27;9.60;;;10.10;99.90;;;;;;5049202;28;38592;-75
2022/11/15 07:03:33;;;;;;;19.07;8.33;;;10.00;99.90;;;;;;5037398;28;48841;-75
2022/11/15 07:06:00;;;;;;;20.63;9.37;;;10.10;99.90;;;;;;5048041;28;37350;-74
2022/11/15 07:08:28;;;;;;;17.50;8.43;;;10.10;99.90;;;;;;5045025;28;40110;-74
2022/11/15 07:10:57;;;;;;;18.83;8.83;;;10.10;99.90;;;;;;5048821;28;37776;-74
2022/11/15 07:13:28;;;;;;;16.55;7.75;;;10.10;99.90;;;;;;5050384;28;37406;-74
2022/11/15 07:15:57;;;;;;;15.03;7.37;;;10.10;99.90;;;;;;5048282;28;38338;-73
2022/11/15 07:18:23;;;;;;;17.70;7.93;;;10.10;99.90;;;;;;5061493;28;37584;-74
2022/11/15 07:20:49;;;;;;;15.43;7.20;;;10.10;99.90;;;;;;5046143;28;36991;-74
2022/11/15 07:23:15;;;;;;;19.03;7.43;;;10.10;99.90;;;;;;5054040;28;37454;-72
2022/11/15 07:25:41;;;;;;;15.33;6.77;;;10.00;99.90;;;;;;5056692;28;37431;-74
2022/11/15 07:28:07;;;;;;;16.63;8.50;;;10.00;99.90;;;;;;5069990;28;38768;-75
2022/11/15 07:30:33;;;;;;;16.03;8.30;;;10.00;99.90;;;;;;5053445;28;39210;-74
2022/11/15 07:33:00;;;;;;;19.77;8.43;;;10.00;99.90;;;;;;5052060;28;40171;-74
2022/11/15 07:35:28;;;;;;;18.20;8.27;;;10.00;99.90;;;;;;5067576;28;36677;-74
2022/11/15 07:38:00;;;;;;;17.87;7.90;;;10.00;99.90;;;;;;5051359;28;37689;-74
2022/11/15 07:40:31;;;;;;;18.80;8.40;;;9.90;99.90;;;;;;5048426;28;39321;-76
2022/11/15 07:43:05;;;;;;;14.53;8.10;;;9.90;99.90;;;;;;5060427;28;38281;-74
2022/11/15 07:45:34;;;;;;;14.17;8.47;;;9.90;99.90;;;;;;5074586;28;48621;-74
2022/11/15 07:48:00;;;;;;;16.50;8.50;;;9.90;99.90;;;;;;5067171;28;39961;-75
2022/11/15 07:50:29;;;;;;;22.20;8.83;;;9.90;99.90;;;;;;5038331;28;37535;-74
2022/11/15 07:52:59;;;;;;;16.03;9.30;;;9.90;99.90;;;;;;5054732;28;38632;-74
2022/11/15 07:55:29;;;;;;;18.40;8.37;;;9.90;99.90;;;;;;5048395;28;37265;-75
2022/11/15 07:58:02;;;;;;;21.03;8.50;;;9.90;99.90;;;;;;5065098;28;38204;-75
2022/11/15 08:00:28;;;;;;;12.20;7.70;;;9.90;99.90;;;;;;5043302;28;46898;-74
2022/11/15 08:03:05;;;;;;;14.37;7.33;;;9.90;99.90;;;;;;5057495;28;37879;-73
2022/11/15 08:05:32;;;;;;;16.47;6.90;;;10.00;99.90;;;;;;5051652;28;47215;-74
2022/11/15 08:07:58;;;;;;;16.83;7.00;;;10.00;99.90;;;;;;5044950;28;38840;-75
2022/11/15 08:10:26;;;;;;;18.93;8.40;;;10.00;99.90;;;;;;5058430;28;40343;-74
2022/11/15 08:13:06;;;;;;;19.30;8.67;;;10.00;99.90;;;;;;5057943;28;37726;-74
2022/11/15 08:15:37;;;;;;;15.37;9.53;;;10.00;99.90;;;;;;5056835;28;47194;-74
2022/11/15 08:18:06;;;;;;;21.27;10.70;;;10.00;99.90;;;;;;5078432;27;38411;-76
2022/11/15 08:20:33;;;;;;;20.70;10.73;;;10.10;99.90;;;;;;5044451;28;37162;-75
2022/11/15 08:23:02;;;;;;;16.33;9.97;;;10.10;99.90;;;;;;5035936;28;36826;-75
2022/11/15 08:25:31;;;;;;;21.97;9.90;;;10.10;99.90;;;;;;5081534;28;49701;-75
2022/11/15 08:28:05;;;;;;;13.47;9.53;;;10.10;99.90;;;;;;5068470;28;38895;-75
2022/11/15 08:30:37;;;;;;;17.20;9.93;;;10.10;99.90;;;;;;5037428;28;48070;-75
2022/11/15 08:33:04;;;;;;;19.20;9.93;;;10.20;99.90;;;;;;5063646;28;37882;-76
2022/11/15 08:35:30;;;;;;;17.33;9.73;;;10.20;99.90;;;;;;5072914;28;36171;-75
2022/11/15 08:37:56;;;;;;;16.77;10.07;;;10.20;99.90;;;;;;5066466;28;37613;-75
2022/11/15 08:40:24;;;;;;;15.57;10.03;;;10.20;99.90;;;;;;5054815;28;37077;-75
2022/11/15 08:42:50;;;;;;;16.50;9.17;;;10.20;99.90;;;;;;5046085;28;37164;-75
2022/11/15 08:45:16;;;;;;;15.30;9.40;;;10.20;99.90;;;;;;5054553;28;38372;-76
2022/11/15 08:47:43;;;;;;;18.80;9.93;;;10.30;99.90;;;;;;5054832;28;38676;-75
2022/11/15 08:50:09;;;;;;;13.97;8.47;;;10.30;99.90;;;;;;5037526;28;37508;-75
2022/11/15 08:52:35;;;;;;;14.97;8.63;;;10.30;99.90;;;;;;5042724;28;37369;-75
2022/11/15 08:55:01;;;;;;;20.93;9.03;;;10.40;99.90;;;;;;5041938;28;36508;-75
2022/11/15 08:57:31;;;;;;;15.00;8.37;;;10.40;99.90;;;;;;5062452;28;37717;-75
2022/11/15 08:59:57;;;;;;;12.77;7.30;;;10.40;99.90;;;;;;5045707;28;38481;-78
2022/11/15 09:02:23;;;;;;;14.43;8.00;;;10.50;99.90;;;;;;5050163;28;38418;-76
2022/11/15 09:04:49;;;;;;;18.33;9.23;;;10.50;99.90;;;;;;5054903;28;38576;-75
2022/11/15 09:07:15;;;;;;;12.80;8.10;;;10.60;99.90;;;;;;5054310;28;40029;-74
2022/11/15 09:09:41;;;;;;;19.37;10.60;;;10.60;99.90;;;;;;5053595;28;39517;-75
2022/11/15 09:12:08;;;;;;;12.83;8.93;;;10.60;99.90;;;;;;5053052;28;38729;-75
2022/11/15 09:14:37;;;;;;;15.57;8.37;;;10.60;99.90;;;;;;5054416;28;37526;-75
2022/11/15 09:17:06;;;;;;;15.97;8.30;;;10.70;99.90;;;;;;5059148;28;37566;-75
2022/11/15 09:19:33;;;;;;;15.87;7.90;;;10.80;99.90;;;;;;5040401;28;38125;-75
2022/11/15 09:22:01;;;;;;;17.57;7.93;;;10.80;99.90;;;;;;5064797;28;36682;-74
2022/11/15 09:24:27;;;;;;;8.63;6.83;;;10.90;99.90;;;;;;5060089;28;49290;-75
2022/11/15 09:26:53;;;;;;;17.13;7.53;;;10.90;99.90;;;;;;5043026;28;37744;-74
2022/11/15 09:29:19;;;;;;;13.17;7.40;;;10.90;99.90;;;;;;5052488;28;38208;-76
2022/11/15 09:31:45;;;;;;;14.97;7.17;;;11.00;99.90;;;;;;5053211;28;36657;-75
2022/11/15 09:34:12;;;;;;;12.97;6.97;;;11.00;99.90;;;;;;5041162;28;36448;-74
2022/11/15 09:36:38;;;;;;;12.60;6.87;;;11.10;99.90;;;;;;5057747;28;37460;-74
2022/11/15 09:39:04;;;;;;;10.32;6.90;;;11.00;99.90;;;;;;5028130;28;37438;-75
2022/11/15 09:41:58;;;;;;;11.10;6.60;;;11.10;99.90;;;;;;5053535;28;37301;-74
2022/11/15 09:44:56;;;;;;;13.85;7.00;;;11.10;99.90;;;;;;5048412;28;36295;-75
2022/11/15 09:47:25;;;;;;;14.90;6.40;;;11.20;99.90;;;;;;5023831;28;39349;-75
2022/11/15 09:50:01;;;;;;;10.45;5.90;;;11.10;99.90;;;;;;5053136;28;39768;-76
2022/11/15 09:52:27;;;;;;;12.10;4.90;;;11.10;99.90;;;;;;5038424;28;36714;-74
2022/11/15 09:54:54;;;;;;;8.23;5.10;;;11.10;99.90;;;;;;5034864;28;38072;-75
2022/11/15 09:57:41;;;;;;;11.75;5.25;;;11.10;99.90;;;;;;5037940;28;37696;-75
2022/11/15 10:00:36;;;;;;;14.18;5.07;;;11.10;99.90;;;;;;5045264;28;39219;-75
2022/11/15 10:03:12;;;;;;;10.50;5.30;;;11.20;99.90;;;;;;5061497;28;38389;-76
2022/11/15 10:05:42;;;;;;;11.50;4.78;;;11.30;99.90;;;;;;5052749;28;36005;-75
2022/11/15 10:08:46;;;;;;;11.45;4.53;;;11.30;99.90;;;;;;5031429;28;37626;-75
2022/11/15 10:11:20;;;;;;;13.00;4.20;;;11.40;99.90;;;;;;5020258;28;37435;-75
2022/11/15 10:13:50;;;;;;;10.73;4.07;;;11.50;99.90;;;;;;5063933;27;38039;-75
2022/11/15 10:16:25;;;;;;;8.93;4.15;;;11.60;99.90;;;;;;5067437;28;38604;-76
2022/11/15 10:19:14;;;;;;;10.27;4.72;;;11.60;99.90;;;;;;5072167;28;39855;-77
2022/11/15 10:22:16;;;;;;;8.57;3.20;;;11.70;99.90;;;;;;5038039;28;47472;-78
2022/11/15 10:24:44;;;;;;;11.88;4.05;;;11.60;99.90;;;;;;5059093;28;47134;-76
2022/11/15 10:27:13;;;;;;;9.52;3.65;;;11.60;99.90;;;;;;5047812;28;37074;-76
2022/11/15 10:29:44;;;;;;;9.40;3.60;;;11.60;99.90;;;;;;5065124;28;37612;-76
2022/11/15 10:32:15;;;;;;;12.48;3.40;;;11.70;99.90;;;;;;5055491;28;37666;-75
2022/11/15 10:34:42;;;;;;;6.60;3.10;;;11.70;99.90;;;;;;5061531;28;37791;-75
2022/11/15 10:37:08;;;;;;;11.73;3.10;;;11.80;99.90;;;;;;5052155;28;35996;-76
2022/11/15 10:39:37;;;;;;;11.43;3.42;;;11.80;99.90;;;;;;5048248;28;37969;-77
2022/11/15 10:42:27;;;;;;;5.40;2.70;;;11.80;99.90;;;;;;5053227;28;36993;-76
2022/11/15 10:44:53;;;;;;;9.15;3.38;;;11.80;99.90;;;;;;5013732;28;38013;-76
2022/11/15 10:47:30;;;;;;;8.77;2.90;;;11.90;99.90;;;;;;5044274;28;36703;-76
2022/11/15 10:50:07;;;;;;;3.90;2.03;;;11.90;99.90;;;;;;5033314;28;39872;-77
2022/11/15 10:52:36;;;;;;;11.82;2.35;;;11.80;99.90;;;;;;5022389;28;47491;-74
2022/11/15 10:55:23;;;;;;;7.88;2.47;;;11.80;99.90;;;;;;5040809;28;37839;-74
2022/11/15 10:58:19;;;;;;;7.50;2.50;;;11.90;99.90;;;;;;5014157;28;47235;-75
2022/11/15 11:00:46;;;;;;;8.93;2.10;;;11.90;99.90;;;;;;5031411;28;47180;-76
2022/11/15 11:03:42;;;;;;;6.80;1.98;;;12.00;99.90;;;;;;5047469;28;37460;-76
2022/11/15 11:06:17;;;;;;;7.97;1.77;;;12.00;99.90;;;;;;5006007;28;38288;-78
2022/11/15 11:09:05;;;;;;;7.28;2.30;;;12.10;99.90;;;;;;5025170;28;20030;-82
2022/11/15 11:11:51;;;;;;;10.57;1.95;;;12.20;99.90;;;;;;4977060;28;46722;-81
2022/11/15 11:14:34;;;;;;;8.48;1.92;;;12.10;99.90;;;;;;5037495;28;39662;-79
2022/11/15 11:17:13;;;;;;;6.00;1.40;;;12.10;99.90;;;;;;5054159;28;38121;-80
2022/11/15 11:20:28;;;;;;;6.40;1.73;;;12.10;99.90;;;;;;5046304;28;48923;-81
2022/11/15 11:27:06;;;;;;;7.05;1.90;;;12.10;99.90;;;;;;5376775;23;20057;-81
2022/11/15 11:30:45;;;;;;;8.52;1.67;;;12.20;99.90;;;;;;5130178;23;50199;-83
2022/11/15 11:38:59;;;;;;;7.57;1.30;;;12.50;99.90;;;;;;5685424;23;20033;-81
2022/11/15 11:44:34;;;;;;;;;;;12.70;99.90;;;;;;5527574;23;20025;-81
2022/11/15 12:04:04;;;;;;;5.32;1.42;;;13.00;99.90;;;;;;5899705;23;20024;-79
2022/11/15 12:06:41;;;;;;;9.75;1.17;;;13.10;99.90;;;;;;5800716;23;44967;-78
2022/11/15 12:29:12;;;;;;;10.68;1.50;;;13.00;99.90;;;;;;5842989;23;20046;-79
2022/11/15 12:34:27;;;;;;;6.72;1.52;;;13.00;99.90;;;;;;5968975;23;20020;-78
2022/11/15 12:41:18;;;;;;;9.95;1.95;;;12.80;99.90;;;;;;5927306;23;20024;31
2022/11/15 12:43:47;;;;;;;14.15;1.65;;;12.80;99.90;;;;;;5158942;23;47899;-81
2022/11/15 12:46:33;;;;;;;7.97;1.63;;;12.80;99.90;;;;;;5008266;23;38765;-81
2022/11/15 13:02:45;;;;;;;8.57;1.42;;;13.00;99.90;;;;;;5203886;23;20403;-81
2022/11/15 13:11:42;;;;;;;6.47;1.30;;;13.00;99.90;;;;;;5187834;23;20037;-79
2022/11/15 13:19:32;;;;;;;5.00;0.88;;;12.90;99.90;;;;;;5892011;23;22420;-79
2022/11/15 13:25:02;;;;;;;5.47;1.23;;;12.80;99.90;;;;;;4965658;23;20046;-80
2022/11/15 13:48:21;;;;;;;3.80;0.90;;;12.60;99.90;;;;;;5491921;23;20069;-81
2022/11/15 13:50:48;;;;;;;6.32;1.17;;;12.60;99.90;;;;;;5047091;23;38305;-80
2022/11/15 13:53:18;;;;;;;7.35;1.10;;;12.60;99.90;;;;;;5373912;23;37132;-80
2022/11/15 13:55:45;;;;;;;7.05;1.35;;;12.60;99.90;;;;;;5446879;23;36136;-79
2022/11/15 13:58:29;;;;;;;5.18;1.45;;;12.60;99.90;;;;;;4891630;29;35980;-81
2022/11/15 14:07:00;;;;;;;8.50;1.35;;;12.60;99.90;;;;;;4914399;29;20041;-81
2022/11/15 14:24:19;;;;;;;6.20;1.20;;;12.60;99.90;;;;;;5377979;23;20024;-77
2022/11/15 14:29:35;;;;;;;5.85;1.05;;;12.60;99.90;;;;;;4926537;29;20059;-79
2022/11/15 14:32:20;;;;;;;9.43;1.30;;;12.60;99.90;;;;;;4911474;29;38029;-80
2022/11/15 14:34:51;;;;;;;10.10;1.38;;;12.60;99.90;;;;;;5089753;23;48498;-81
2022/11/15 14:37:35;;;;;;;6.72;1.08;;;12.60;99.90;;;;;;4915851;28;37781;-80
2022/11/15 14:40:03;;;;;;;3.90;0.95;;;12.50;99.90;;;;;;4919268;29;37625;-81
2022/11/15 14:42:29;;;;;;;9.13;1.50;;;12.50;99.90;;;;;;4902751;29;40997;-81
2022/11/15 14:45:15;;;;;;;5.53;1.05;;;12.50;99.90;;;;;;4920814;29;39077;-79
2022/11/15 14:47:42;;;;;;;6.18;1.40;;;12.50;99.90;;;;;;4910081;29;50235;-79
2022/11/15 14:50:20;;;;;;;5.15;1.00;;;12.50;99.90;;;;;;4898396;29;36611;-80
2022/11/15 14:52:46;;;;;;;4.32;1.98;;;12.50;99.90;;;;;;4903776;29;38871;-80
2022/11/15 14:55:34;;;;;;;5.18;1.77;;;12.50;99.90;;;;;;5092418;23;38511;-80
2022/11/15 14:58:09;;;;;;;7.32;1.73;;;12.50;99.90;;;;;;4903929;29;37082;-81
2022/11/15 15:00:38;;;;;;;9.45;2.33;;;12.50;99.90;;;;;;4913544;29;50403;-81
2022/11/15 15:03:06;;;;;;;7.72;2.28;;;12.50;99.90;;;;;;4919787;29;38744;-81
2022/11/15 15:08:11;;;;;;;8.43;2.55;;;12.50;99.90;;;;;;5054278;23;20045;-80
2022/11/15 15:10:44;;;;;;;5.00;2.42;;;12.50;99.90;;;;;;4893608;29;36345;-80
2022/11/15 15:13:30;;;;;;;7.55;1.35;;;12.50;99.90;;;;;;4881467;29;38848;-80
2022/11/15 15:15:57;;;;;;;4.63;1.50;;;12.50;99.90;;;;;;4893491;29;38377;-81
2022/11/15 15:18:55;;;;;;;6.18;1.30;;;12.50;99.90;;;;;;4895689;29;38204;-80
2022/11/15 15:21:32;;;;;;;6.85;1.25;;;12.50;99.90;;;;;;4883879;29;37249;-80
2022/11/15 15:24:36;;;;;;;3.65;1.38;;;12.40;99.90;;;;;;4898311;29;39103;-81
2022/11/15 15:27:03;;;;;;;4.60;1.33;;;12.30;99.90;;;;;;4996863;23;48533;-80